首页
METAR-TAF:

METAR-TAF

机场 :

Felker Army Airfield

Fort Eustis, 弗吉尼亚州, 美国

纬度: 37-08N, 经度: 076-37W, 海拔: 4米

当前天气观测

该预报发布于12分钟前的15:56 UTC
风速5节,风向
温度 29°C
湿度 70%
气压 1016 hPa
能見度: 16.1公里
少量云层高于17000英尺
散云层高于20000英尺

METAR: KFAF 161556Z 19005KT 10SM FEW170 SCT200 29/23 A3001 RMK AO2A SLP165 T02860228 $

时间: 12:08 (16:08 UTC)

预报

该预报发布于6小时和8分钟前的10:00 UTC
预报有效从16日的 10点(UTC)到 17日的 16点(UTC)
风速9节,风向西南
能见度10公里或以上
少量云层高于3000英尺
多云层高于17000英尺
成为
从 17日的 02点(UTC)到 17日的 03点(UTC)
风速9节,风向西南
能见度10公里或以上
多云层高于3000英尺
多云层高于15000英尺
成为
从 17日的 05点(UTC)到 17日的 06点(UTC)
风速9节,风向西南
能见度10公里或以上
散云层高于1000英尺
多云层高于2000英尺
成为
从 17日的 12点(UTC)到 17日的 13点(UTC)
风速10节,风向西南,有时为15节阵风
能见度10公里或以上
散云层高于3000英尺

TAF: KFAF 161000Z 1610/1716 22009KT 9999 FEW030 BKN170 QNH2999INS BECMG 1702/1703 22009KT 9999 BKN030 BKN150 QNH2995INS BECMG 1705/1706 23009KT 9999 SCT010 BKN020 QNH2990INS BECMG 1712/1713 23010G15KT 9999 SCT030 QNH2989INS TX32/1621Z TN23/1611Z

超过4000个机场的气象观测和天气预报(METAR&TAF报告)。

可查询的气象台以黄色和红色小点在地图上表示。

将鼠标移到小点上方,可查看气象台名称。

然后点击查看天气观测和预报。

如需切换地图:点击带黑十字的绿色按钮放大地图;点击带横线的绿色按钮缩小地图;或者点击绿色箭头查看邻近地区的地图。


METAR-TAF: